Time;durP1;ratioP1;P1;durP2;ratioP2;P2;SDS_P1;SDS_P2;PMS_P1;PMS_P2;Temp;Humidity;BMP_temperature;BMP_pressure;BME280_temperature;BME280_humidity;BME280_pressure;Samples;Min_cycle;Max_cycle;Signal;HPM_P1;HPM_P2
2023/12/27 00:00:19;;;;;;;4.17;1.83;;;;;;;8.59;84.16;98198.03;6120417;29;20215;-46
2023/12/27 00:03:21;;;;;;;2.97;1.90;;;;;;;8.75;82.66;98196.69;6129814;28;20751;-46
2023/12/27 00:06:23;;;;;;;4.57;1.87;;;;;;;8.77;82.67;98186.66;6129911;28;21100;-47
2023/12/27 00:09:26;;;;;;;2.63;2.10;;;;;;;8.50;83.51;98180.75;6128820;28;20202;-48
2023/12/27 00:12:28;;;;;;;2.40;1.60;;;;;;;8.44;84.19;98201.00;6124725;28;20242;-46
2023/12/27 00:15:30;;;;;;;2.50;1.50;;;;;;;8.58;82.70;98203.56;6124902;28;20584;-47
2023/12/27 00:18:32;;;;;;;4.00;1.80;;;;;;;8.47;83.51;98195.28;6124833;28;20543;-49
2023/12/27 00:21:34;;;;;;;1.70;1.60;;;;;;;8.51;83.24;98215.03;6125856;28;20191;-49
2023/12/27 00:24:36;;;;;;;2.80;1.63;;;;;;;8.50;82.77;98223.22;6126425;29;20209;-47
2023/12/27 00:27:39;;;;;;;3.77;1.70;;;;;;;8.44;83.17;98237.38;6128991;28;20265;-46
2023/12/27 00:30:41;;;;;;;2.73;1.70;;;;;;;8.66;81.90;98227.19;6120814;29;20685;-47
2023/12/27 00:33:43;;;;;;;3.50;1.50;;;;;;;8.58;82.57;98240.75;6119648;29;20206;-47
2023/12/27 00:36:45;;;;;;;3.30;1.77;;;;;;;8.56;82.02;98243.59;6130457;28;20251;-46
2023/12/27 00:39:47;;;;;;;2.00;1.60;;;;;;;8.51;83.71;98246.91;6129979;28;20227;-47
2023/12/27 00:42:51;;;;;;;2.00;1.80;;;;;;;8.53;82.33;98238.75;6120663;28;20207;-47
2023/12/27 00:45:53;;;;;;;3.10;1.70;;;;;;;8.50;83.15;98245.28;6126660;28;20192;-47
2023/12/27 00:48:55;;;;;;;1.80;1.50;;;;;;;8.46;83.17;98256.53;6127464;28;20191;-46
2023/12/27 00:51:57;;;;;;;1.60;1.50;;;;;;;8.44;84.75;98248.00;6126466;29;20324;-48
2023/12/27 00:54:59;;;;;;;3.57;1.57;;;;;;;8.44;83.29;98259.41;6131944;28;20195;-47
2023/12/27 00:58:02;;;;;;;2.37;1.60;;;;;;;8.40;84.24;98258.22;6129047;28;20660;-46
2023/12/27 01:01:04;;;;;;;2.40;1.87;;;;;;;8.34;84.91;98271.50;6122164;29;20868;-48
2023/12/27 01:04:06;;;;;;;5.20;2.10;;;;;;;8.51;83.48;98276.09;6112667;29;20863;-46
2023/12/27 01:07:08;;;;;;;3.10;1.37;;;;;;;8.66;82.76;98269.69;6133604;28;20926;-48
2023/12/27 01:10:10;;;;;;;1.70;1.40;;;;;;;8.43;83.53;98260.44;6127569;28;20216;-46
2023/12/27 01:13:13;;;;;;;3.63;1.83;;;;;;;8.54;83.37;98280.19;6129968;28;20775;-47
2023/12/27 01:16:15;;;;;;;1.57;1.47;;;;;;;8.63;82.64;98284.22;6130412;29;20195;-46
2023/12/27 01:19:17;;;;;;;1.97;1.63;;;;;;;8.55;83.70;98294.28;6135058;28;20199;-47
2023/12/27 01:22:20;;;;;;;2.50;1.60;;;;;;;8.48;85.93;98307.59;6138840;28;20671;-47
2023/12/27 01:25:22;;;;;;;3.13;1.77;;;;;;;8.33;86.90;98305.19;6144375;28;20211;-48
2023/12/27 01:28:24;;;;;;;3.20;1.50;;;;;;;8.46;85.58;98299.03;6137923;28;20203;-46
2023/12/27 01:31:26;;;;;;;2.53;1.43;;;;;;;8.35;85.98;98315.59;6124436;29;20572;-46
2023/12/27 01:34:28;;;;;;;3.63;1.63;;;;;;;8.33;85.45;98309.69;6130056;28;20679;-47
2023/12/27 01:37:32;;;;;;;3.13;1.40;;;;;;;8.35;85.18;98307.63;6129435;28;20225;-46
2023/12/27 01:40:34;;;;;;;1.37;1.20;;;;;;;8.31;86.66;98309.06;6142219;29;20198;-46
2023/12/27 01:43:37;;;;;;;3.57;1.80;;;;;;;8.37;85.70;98311.72;6128099;28;20726;-49
2023/12/27 01:46:39;;;;;;;2.70;1.67;;;;;;;8.36;85.82;98320.72;6130515;28;20549;-47
2023/12/27 01:49:42;;;;;;;2.27;1.30;;;;;;;8.30;86.71;98318.88;6127077;28;20211;-46
2023/12/27 01:52:44;;;;;;;2.67;1.50;;;;;;;8.55;85.51;98302.25;6129179;29;20714;-47
2023/12/27 01:55:47;;;;;;;3.73;1.87;;;;;;;8.33;85.68;98288.47;6122623;29;20209;-46
2023/12/27 01:58:49;;;;;;;3.20;1.60;;;;;;;8.39;86.98;98315.00;6115045;28;20579;-47
2023/12/27 02:01:52;;;;;;;4.80;1.70;;;;;;;8.35;87.50;98313.75;6128174;28;20199;-47
2023/12/27 02:04:54;;;;;;;3.23;1.50;;;;;;;8.34;87.50;98317.44;6118676;28;20210;-47
2023/12/27 02:07:57;;;;;;;2.63;1.70;;;;;;;8.54;85.88;98314.72;6119180;29;20214;-47
2023/12/27 02:11:00;;;;;;;3.03;1.53;;;;;;;8.38;86.69;98324.00;6131525;28;20209;-45
2023/12/27 02:14:06;;;;;;;2.57;1.50;;;;;;;8.33;87.29;98330.94;6131139;28;20232;-47
2023/12/27 02:17:08;;;;;;;2.40;1.63;;;;;;;8.34;86.61;98320.09;6132187;28;20553;-46
2023/12/27 02:20:10;;;;;;;2.77;1.57;;;;;;;8.24;87.67;98314.44;6125364;29;20199;-47
2023/12/27 02:23:17;;;;;;;2.20;1.50;;;;;;;8.18;86.98;98310.78;6123554;29;20742;-46
2023/12/27 02:26:20;;;;;;;2.80;1.40;;;;;;;8.22;86.82;98327.06;6133128;29;20664;-49
2023/12/27 02:29:22;;;;;;;2.33;1.30;;;;;;;8.28;84.93;98312.97;6125702;28;20653;-48
2023/12/27 02:32:26;;;;;;;2.40;1.43;;;;;;;8.31;86.20;98325.00;6112154;29;20237;-49
2023/12/27 02:35:28;;;;;;;2.37;1.40;;;;;;;8.18;86.29;98308.13;6122129;29;20558;-48
2023/12/27 02:38:30;;;;;;;2.73;1.60;;;;;;;8.19;85.46;98316.91;6134080;28;20196;-46
2023/12/27 02:41:32;;;;;;;4.17;1.40;;;;;;;8.55;83.02;98307.56;6133305;28;20675;-49
2023/12/27 02:44:35;;;;;;;2.20;1.30;;;;;;;8.37;83.51;98310.91;6131829;28;20334;-47
2023/12/27 02:47:37;;;;;;;0.90;0.83;;;;;;;8.31;84.03;98317.84;6135741;28;20214;-47
2023/12/27 02:50:39;;;;;;;1.43;1.20;;;;;;;8.22;84.95;98305.84;6123620;29;20211;-47
2023/12/27 02:53:41;;;;;;;2.83;1.30;;;;;;;8.16;85.08;98317.31;6132669;28;20221;-46
2023/12/27 02:56:43;;;;;;;1.83;1.10;;;;;;;8.13;85.73;98321.22;6131995;28;20198;-47
2023/12/27 02:59:45;;;;;;;2.00;1.30;;;;;;;8.15;85.01;98318.34;6130297;29;20281;-48
2023/12/27 03:02:47;;;;;;;3.73;1.40;;;;;;;8.17;84.19;98308.31;6131588;28;20202;-48
2023/12/27 03:05:49;;;;;;;2.50;1.37;;;;;;;8.16;84.38;98319.97;6126990;28;20687;-49
2023/12/27 03:08:53;;;;;;;1.33;1.00;;;;;;;8.15;84.46;98328.94;6120739;29;20671;-47
2023/12/27 03:11:56;;;;;;;6.50;1.50;;;;;;;8.24;83.24;98312.59;6127280;28;20707;-48
2023/12/27 03:14:58;;;;;;;1.83;0.87;;;;;;;8.00;84.07;98303.50;6126467;28;20195;-48
2023/12/27 03:18:00;;;;;;;1.63;0.93;;;;;;;8.44;80.69;98317.81;6129567;28;20208;-47
2023/12/27 03:21:03;;;;;;;1.30;1.13;;;;;;;8.08;81.83;98297.16;6108335;28;20198;-46
2023/12/27 03:24:05;;;;;;;2.13;1.00;;;;;;;8.23;81.74;98337.50;6121299;28;20213;-47
2023/12/27 03:27:07;;;;;;;1.97;1.03;;;;;;;8.17;81.60;98338.31;6117601;29;20215;-49
2023/12/27 03:30:10;;;;;;;1.97;1.00;;;;;;;8.11;82.19;98343.66;6139007;28;20299;-48
2023/12/27 03:33:13;;;;;;;1.47;0.93;;;;;;;8.08;81.30;98331.66;6126719;28;20999;-45
2023/12/27 03:36:15;;;;;;;2.60;1.00;;;;;;;8.06;81.80;98340.81;6111443;29;20699;-46
2023/12/27 03:39:17;;;;;;;1.57;1.00;;;;;;;8.08;80.58;98344.06;6128698;28;20702;-46
2023/12/27 03:42:19;;;;;;;1.40;0.83;;;;;;;8.45;77.20;98324.75;6135572;28;20638;-49
2023/12/27 03:45:21;;;;;;;2.87;0.90;;;;;;;8.30;77.62;98326.84;6133426;28;20190;-49
2023/12/27 03:48:24;;;;;;;4.30;1.10;;;;;;;8.15;78.54;98327.13;6113845;28;20197;-49
2023/12/27 03:51:26;;;;;;;2.10;1.10;;;;;;;8.11;77.55;98344.47;6127791;29;20278;-48
2023/12/27 03:54:28;;;;;;;1.53;0.83;;;;;;;8.08;78.73;98339.59;6116458;29;20209;-46
2023/12/27 03:57:30;;;;;;;1.10;0.80;;;;;;;8.12;76.37;98324.06;6118338;28;20257;-47
2023/12/27 04:00:34;;;;;;;2.33;0.80;;;;;;;8.24;75.22;98344.44;6115172;29;20338;-48
2023/12/27 04:03:36;;;;;;;2.10;0.80;;;;;;;8.27;74.70;98343.19;6133273;28;20218;-48
2023/12/27 04:06:38;;;;;;;0.93;0.83;;;;;;;8.13;73.93;98339.78;6133780;28;20711;-47
2023/12/27 04:09:41;;;;;;;0.83;0.60;;;;;;;8.10;74.64;98350.81;6132257;28;20773;-46
2023/12/27 04:12:43;;;;;;;1.33;0.67;;;;;;;8.05;75.87;98357.78;6118363;28;20234;-46
2023/12/27 04:15:45;;;;;;;1.80;0.80;;;;;;;8.07;74.89;98361.84;6133736;28;20552;-46
2023/12/27 04:18:48;;;;;;;1.83;0.60;;;;;;;8.06;74.50;98378.78;6134003;29;20198;-46
2023/12/27 04:21:51;;;;;;;0.87;0.60;;;;;;;8.06;74.06;98384.09;6137047;28;20191;-46
2023/12/27 04:24:53;;;;;;;1.13;0.67;;;;;;;8.10;73.98;98371.22;6137380;29;20198;-48
2023/12/27 04:27:58;;;;;;;2.73;1.23;;;;;;;8.26;72.70;98381.38;6118055;29;20206;-47
2023/12/27 04:31:00;;;;;;;1.93;0.87;;;;;;;8.16;72.49;98370.38;6118257;29;20599;-47
2023/12/27 04:34:03;;;;;;;2.40;1.20;;;;;;;8.37;71.51;98369.31;6131007;28;20219;-48
2023/12/27 04:37:09;;;;;;;4.20;1.20;;;;;;;8.37;71.20;98375.44;6122484;28;20198;-47
2023/12/27 04:40:11;;;;;;;1.20;0.63;;;;;;;8.38;71.21;98370.97;6116014;28;20201;-47
2023/12/27 04:43:13;;;;;;;3.07;1.00;;;;;;;8.40;71.54;98368.91;6136260;28;20277;-47
2023/12/27 04:46:16;;;;;;;2.27;0.90;;;;;;;8.18;71.99;98350.59;6137437;28;20226;-46
2023/12/27 04:49:18;;;;;;;1.40;0.83;;;;;;;8.51;71.55;98361.06;6120631;29;20687;-47
2023/12/27 04:52:21;;;;;;;1.40;0.97;;;;;;;8.43;72.53;98371.97;6135199;28;20211;-47
2023/12/27 04:55:23;;;;;;;3.37;1.20;;;;;;;8.41;73.02;98365.22;6137945;28;20711;-46
2023/12/27 04:58:25;;;;;;;2.93;1.20;;;;;;;8.46;73.07;98366.22;6125818;28;20203;-48
2023/12/27 05:01:27;;;;;;;1.97;0.90;;;;;;;8.16;75.45;98355.28;6127361;28;20203;-48
2023/12/27 05:04:29;;;;;;;2.63;0.97;;;;;;;8.16;75.81;98362.44;6132146;28;20194;-47
2023/12/27 05:07:32;;;;;;;1.33;0.87;;;;;;;8.19;76.54;98365.47;6130562;28;20607;-46
2023/12/27 05:10:34;;;;;;;1.40;1.00;;;;;;;8.04;77.61;98358.81;6129767;28;20214;-49
2023/12/27 05:13:36;;;;;;;1.90;0.70;;;;;;;8.27;76.54;98367.06;6123730;29;20604;-46
2023/12/27 05:16:38;;;;;;;1.87;0.90;;;;;;;8.20;77.24;98371.59;6119939;29;20228;-45
2023/12/27 05:19:40;;;;;;;3.17;1.10;;;;;;;7.98;78.67;98352.50;6133483;28;20203;-47
2023/12/27 05:22:44;;;;;;;2.23;1.17;;;;;;;7.91;79.61;98373.72;6137353;28;20195;-47
2023/12/27 05:25:46;;;;;;;1.30;1.00;;;;;;;7.98;79.89;98379.84;6129720;28;20254;-45
2023/12/27 05:28:48;;;;;;;3.73;1.30;;;;;;;7.95;79.92;98361.66;6132606;28;20190;-48
2023/12/27 05:31:50;;;;;;;2.03;0.90;;;;;;;8.06;79.54;98380.63;6125886;28;20193;-47
2023/12/27 05:34:53;;;;;;;5.17;1.30;;;;;;;7.92;80.60;98379.84;6125713;28;20198;-47
2023/12/27 05:37:55;;;;;;;2.30;1.00;;;;;;;7.96;80.57;98400.44;6132164;28;20741;-45
2023/12/27 05:40:57;;;;;;;3.33;1.27;;;;;;;8.12;79.27;98393.88;6137255;28;20198;-47
2023/12/27 05:44:01;;;;;;;2.87;1.40;;;;;;;8.27;78.99;98386.50;6134772;28;20185;-48
2023/12/27 05:47:03;;;;;;;2.47;0.90;;;;;;;8.20;79.05;98398.16;6136841;28;20726;-47
2023/12/27 05:50:06;;;;;;;1.53;0.90;;;;;;;8.18;79.72;98395.72;6134580;28;20206;-48
2023/12/27 05:53:09;;;;;;;2.43;1.10;;;;;;;8.17;79.20;98394.06;6135790;28;20246;-49
2023/12/27 05:56:15;;;;;;;1.10;1.00;;;;;;;8.23;78.75;98397.75;6135934;28;20187;-50
2023/12/27 05:59:17;;;;;;;1.67;1.13;;;;;;;8.15;79.50;98401.41;6137438;28;20610;-48
2023/12/27 06:02:19;;;;;;;1.53;0.97;;;;;;;8.09;79.67;98412.06;6138062;28;20213;-49
2023/12/27 06:05:22;;;;;;;3.23;1.20;;;;;;;8.12;79.79;98406.31;6139237;28;20203;-50
2023/12/27 06:08:24;;;;;;;4.27;1.30;;;;;;;8.13;79.74;98406.13;6139702;28;20199;-49
2023/12/27 06:11:26;;;;;;;1.83;0.90;;;;;;;8.10;79.11;98409.19;6138397;28;20233;-50
2023/12/27 06:14:29;;;;;;;2.97;1.10;;;;;;;7.91;80.97;98408.19;6138138;28;20629;-48
2023/12/27 06:17:31;;;;;;;1.40;0.90;;;;;;;7.92;80.10;98409.81;6137691;29;20710;-47
2023/12/27 06:20:33;;;;;;;1.50;1.27;;;;;;;7.90;80.53;98406.56;6140890;28;20276;-47
2023/12/27 06:23:35;;;;;;;2.63;1.17;;;;;;;7.84;80.92;98411.91;6140505;28;20680;-47
2023/12/27 06:26:37;;;;;;;2.03;1.00;;;;;;;7.72;82.75;98404.53;6137578;28;20201;-46
2023/12/27 06:29:39;;;;;;;1.40;1.00;;;;;;;7.60;83.08;98416.00;6138272;29;20232;-46
2023/12/27 06:32:41;;;;;;;2.30;1.00;;;;;;;7.52;83.82;98416.19;6133493;29;20274;-48
2023/12/27 06:35:44;;;;;;;2.60;0.90;;;;;;;7.60;82.70;98416.00;6133870;28;20208;-47
2023/12/27 06:38:46;;;;;;;3.23;0.80;;;;;;;7.49;83.41;98420.06;6119036;29;20544;-49
2023/12/27 06:41:48;;;;;;;2.07;1.17;;;;;;;7.94;80.65;98426.38;6130134;28;20276;-48
2023/12/27 06:44:50;;;;;;;1.80;0.97;;;;;;;7.86;80.74;98426.56;6134892;29;20203;-47
2023/12/27 06:47:52;;;;;;;2.13;0.93;;;;;;;7.86;81.38;98429.22;6130727;28;20208;-47
2023/12/27 06:50:54;;;;;;;2.23;1.10;;;;;;;7.74;82.04;98441.50;6126673;28;20229;-47
2023/12/27 06:53:56;;;;;;;1.77;0.80;;;;;;;7.61;83.27;98444.13;6126799;29;20578;-46
2023/12/27 06:56:59;;;;;;;1.80;0.70;;;;;;;7.53;83.90;98452.28;6129134;28;20205;-47
2023/12/27 07:00:02;;;;;;;2.27;0.90;;;;;;;7.34;84.95;98445.94;6129240;28;20223;-47
2023/12/27 07:03:05;;;;;;;1.20;0.87;;;;;;;7.38;85.35;98460.41;6131857;28;20361;-47
2023/12/27 07:06:07;;;;;;;2.47;1.30;;;;;;;7.40;83.50;98464.50;6132709;28;20668;-49
2023/12/27 07:09:10;;;;;;;2.20;1.10;;;;;;;7.47;83.75;98462.69;6134407;28;20233;-49
2023/12/27 07:12:12;;;;;;;1.97;1.10;;;;;;;7.46;84.72;98469.00;6132133;28;20293;-47
2023/12/27 07:15:15;;;;;;;2.10;0.80;;;;;;;7.45;84.48;98475.31;6136154;28;20205;-47
2023/12/27 07:18:17;;;;;;;5.00;1.10;;;;;;;7.54;82.58;98480.41;6124940;28;20210;-47
2023/12/27 07:21:20;;;;;;;1.70;0.80;;;;;;;7.57;82.82;98488.78;6137619;29;20216;-48
2023/12/27 07:24:23;;;;;;;2.23;0.90;;;;;;;7.54;83.38;98485.72;6129037;28;20201;-47
2023/12/27 07:27:25;;;;;;;4.90;1.20;;;;;;;7.50;83.78;98488.78;6133702;28;20203;-48
2023/12/27 07:30:27;;;;;;;1.43;0.87;;;;;;;7.48;83.92;98497.94;6136651;28;20210;-45
2023/12/27 07:33:30;;;;;;;1.60;0.90;;;;;;;7.49;84.65;98491.66;6124783;28;20218;-50
2023/12/27 07:36:32;;;;;;;1.47;0.97;;;;;;;7.67;83.18;98506.97;6127433;28;20565;-47
2023/12/27 07:39:35;;;;;;;1.70;1.03;;;;;;;7.71;83.71;98500.22;6128873;28;20253;-47
2023/12/27 07:42:37;;;;;;;0.90;0.80;;;;;;;7.88;81.63;98504.13;6126694;29;20206;-48
2023/12/27 07:45:39;;;;;;;2.83;0.90;;;;;;;7.82;82.29;98509.41;6132226;28;20207;-47
2023/12/27 07:48:42;;;;;;;2.63;0.97;;;;;;;7.76;82.87;98519.00;6134089;28;20337;-46
2023/12/27 07:51:44;;;;;;;2.30;0.90;;;;;;;7.70;83.14;98525.13;6134404;28;20222;-47
2023/12/27 07:54:46;;;;;;;1.30;1.00;;;;;;;7.65;85.71;98538.19;6132969;29;20438;-47
2023/12/27 07:57:49;;;;;;;2.10;0.80;;;;;;;7.57;85.69;98535.69;6135724;28;20283;-47
2023/12/27 08:00:53;;;;;;;1.60;0.90;;;;;;;7.55;85.79;98543.88;6137869;28;20206;-47
2023/12/27 08:03:55;;;;;;;1.93;0.80;;;;;;;7.56;86.29;98555.28;6143476;28;20689;-46
2023/12/27 08:06:57;;;;;;;2.57;1.03;;;;;;;7.50;86.85;98549.78;6139191;28;20714;-45
2023/12/27 08:10:00;;;;;;;2.10;0.80;;;;;;;7.58;87.05;98562.00;6120715;28;20215;-47
2023/12/27 08:13:03;;;;;;;1.77;0.90;;;;;;;7.64;86.67;98555.13;6139142;29;20582;-46
2023/12/27 08:16:08;;;;;;;4.13;1.10;;;;;;;7.82;83.20;98557.16;6133179;28;20206;-46
2023/12/27 08:19:10;;;;;;;1.67;0.97;;;;;;;7.79;83.81;98539.00;6123223;28;20746;-47
2023/12/27 08:22:12;;;;;;;3.20;1.10;;;;;;;7.91;85.05;98561.25;6137015;28;20224;-49
2023/12/27 08:25:15;;;;;;;1.90;0.93;;;;;;;7.99;84.31;98569.84;6131379;29;20548;-47
2023/12/27 08:28:17;;;;;;;1.57;1.00;;;;;;;8.08;83.67;98577.59;6127173;28;20240;-48
2023/12/27 08:31:19;;;;;;;1.57;0.93;;;;;;;8.09;83.87;98569.44;6123897;28;20208;-48
2023/12/27 08:34:22;;;;;;;1.20;0.97;;;;;;;8.22;82.81;98585.34;6131640;28;20767;-49
2023/12/27 08:37:25;;;;;;;1.70;1.00;;;;;;;8.29;83.08;98588.03;6111461;28;20619;-48
2023/12/27 08:40:27;;;;;;;2.73;1.00;;;;;;;8.41;82.58;98598.88;6128229;28;20198;-46
2023/12/27 08:43:29;;;;;;;2.60;0.80;;;;;;;8.52;82.49;98590.25;6128657;29;20191;-48
2023/12/27 08:46:32;;;;;;;2.30;1.10;;;;;;;8.66;81.55;98594.53;6130282;28;20203;-48
2023/12/27 08:49:34;;;;;;;1.53;1.10;;;;;;;8.79;80.10;98596.38;6131456;28;20539;-48
2023/12/27 08:52:38;;;;;;;1.93;1.00;;;;;;;8.91;78.77;98588.56;6128655;28;20749;-50
2023/12/27 08:55:40;;;;;;;1.67;1.10;;;;;;;9.03;78.68;98597.53;6130076;28;20580;-50
2023/12/27 08:58:42;;;;;;;1.60;1.20;;;;;;;9.15;77.39;98592.38;6129094;28;20200;-50
2023/12/27 09:01:44;;;;;;;1.70;1.13;;;;;;;9.27;76.41;98599.50;6130099;28;20564;-51
2023/12/27 09:04:46;;;;;;;1.73;0.90;;;;;;;9.27;77.65;98591.53;6130254;28;20734;-52
2023/12/27 09:07:48;;;;;;;2.67;1.20;;;;;;;9.23;74.71;98584.19;6136092;28;20270;-48
2023/12/27 09:10:50;;;;;;;2.17;1.10;;;;;;;9.14;75.22;98574.81;6128005;28;20207;-52
2023/12/27 09:13:53;;;;;;;2.23;0.90;;;;;;;9.21;75.00;98589.72;6131713;28;20305;-50
2023/12/27 09:16:55;;;;;;;2.90;1.30;;;;;;;9.33;73.46;98591.72;6133552;28;20210;-50
2023/12/27 09:19:57;;;;;;;1.30;0.97;;;;;;;9.38;73.14;98591.88;6132798;28;20251;-47
2023/12/27 09:23:00;;;;;;;1.20;1.03;;;;;;;9.46;73.11;98589.00;6131703;28;20885;-51
2023/12/27 09:26:02;;;;;;;3.70;1.13;;;;;;;9.62;71.84;98585.84;6130268;28;20193;-50
2023/12/27 09:29:04;;;;;;;2.43;1.03;;;;;;;9.44;72.47;98575.91;6130228;28;20207;-47
2023/12/27 09:32:06;;;;;;;1.93;1.23;;;;;;;9.36;72.64;98591.25;6111065;29;20697;-50
2023/12/27 09:35:09;;;;;;;2.33;1.00;;;;;;;9.29;73.06;98575.34;6125178;29;20213;-49
2023/12/27 09:38:11;;;;;;;1.73;1.10;;;;;;;9.24;73.50;98591.94;6128926;28;20284;-49
2023/12/27 09:41:14;;;;;;;1.73;0.90;;;;;;;9.26;74.14;98591.72;6131696;28;20702;-49
2023/12/27 09:44:20;;;;;;;2.53;1.03;;;;;;;9.34;73.06;98580.84;6135720;28;20799;-48
2023/12/27 09:47:23;;;;;;;0.90;0.80;;;;;;;9.43;71.48;98584.09;6133961;28;20676;-50
2023/12/27 09:50:25;;;;;;;1.13;0.83;;;;;;;9.38;70.90;98560.78;6131240;29;20218;-47
2023/12/27 09:53:27;;;;;;;0.63;0.60;;;;;;;9.71;70.75;98570.44;6129194;28;20683;-47
2023/12/27 09:56:31;;;;;;;1.27;0.60;;;;;;;9.60;69.68;98549.81;6129590;28;20801;-48
2023/12/27 09:59:38;;;;;;;1.00;0.80;;;;;;;9.81;69.16;98579.59;6143948;29;20223;-47
2023/12/27 10:02:42;;;;;;;1.90;0.70;;;;;;;9.78;70.09;98553.41;6130061;28;20290;-50
2023/12/27 10:05:54;;;;;;;0.83;0.70;;;;;;;10.03;66.50;98563.25;6143605;28;20910;-49
2023/12/27 10:08:57;;;;;;;1.30;0.70;;;;;;;10.09;67.18;98565.84;6126778;28;20198;-49
2023/12/27 10:12:00;;;;;;;1.50;0.60;;;;;;;10.32;66.80;98572.47;6128875;28;20233;-49
2023/12/27 10:15:04;;;;;;;0.77;0.60;;;;;;;10.58;66.02;98566.91;6127156;28;20218;-47
2023/12/27 10:18:08;;;;;;;1.30;0.77;;;;;;;10.54;65.34;98564.88;6114886;28;20272;-47
2023/12/27 10:21:10;;;;;;;1.17;0.60;;;;;;;10.40;64.53;98545.56;6130098;28;20225;-50
2023/12/27 10:24:14;;;;;;;1.27;0.70;;;;;;;10.38;64.40;98560.13;6130923;28;20255;-48
2023/12/27 10:27:16;;;;;;;1.43;0.83;;;;;;;10.33;64.88;98558.94;6134791;29;20667;-47
2023/12/27 10:30:19;;;;;;;1.07;0.73;;;;;;;10.40;64.96;98552.75;6126417;28;20278;-49
2023/12/27 10:33:22;;;;;;;1.63;0.70;;;;;;;10.39;64.48;98549.25;6131892;28;20221;-49
2023/12/27 10:36:33;;;;;;;1.90;0.67;;;;;;;10.45;63.99;98537.75;6133833;28;20198;-48
2023/12/27 10:39:42;;;;;;;0.50;0.50;;;;;;;10.44;63.82;98533.44;6129379;28;20206;-50
2023/12/27 10:42:46;;;;;;;2.30;0.90;;;;;;;10.41;64.82;98522.41;6134302;28;20208;-49
2023/12/27 10:45:48;;;;;;;1.40;0.90;;;;;;;10.44;64.26;98517.47;6134224;28;20670;-51
2023/12/27 10:48:55;;;;;;;1.77;0.50;;;;;;;10.63;63.86;98520.94;6135978;28;20578;-50
2023/12/27 10:51:59;;;;;;;0.63;0.63;;;;;;;10.70;63.76;98508.38;6133954;28;20575;-50
2023/12/27 10:55:03;;;;;;;1.00;0.70;;;;;;;10.87;63.90;98503.25;6132459;28;20706;-50
2023/12/27 10:58:10;;;;;;;2.40;0.87;;;;;;;11.01;63.17;98509.25;6139673;28;20202;-51
2023/12/27 11:01:13;;;;;;;0.97;0.80;;;;;;;10.98;62.60;98502.50;6133871;28;20191;-50
2023/12/27 11:04:18;;;;;;;1.53;0.70;;;;;;;11.07;62.86;98503.00;6132661;28;20208;-48
2023/12/27 11:07:24;;;;;;;1.30;0.80;;;;;;;11.15;62.23;98504.56;6135595;28;20202;-48
2023/12/27 11:10:29;;;;;;;0.77;0.60;;;;;;;11.24;61.92;98488.03;6133508;28;20206;-52
2023/12/27 11:13:33;;;;;;;0.70;0.50;;;;;;;11.36;61.55;98493.41;6135494;28;20696;-50
2023/12/27 11:16:39;;;;;;;1.53;1.13;;;;;;;11.24;62.81;98495.22;6130916;29;20580;-50
2023/12/27 11:19:42;;;;;;;3.23;1.73;;;;;;;10.77;65.37;98479.78;6132269;28;20202;-46
2023/12/27 11:22:45;;;;;;;5.03;1.63;;;;;;;10.40;66.39;98471.00;6133598;29;20656;-52
2023/12/27 11:25:47;;;;;;;5.23;1.70;;;;;;;10.19;68.31;98474.03;6132897;29;20190;-47
2023/12/27 11:28:49;;;;;;;3.63;1.50;;;;;;;10.13;68.81;98472.25;6130436;28;20199;-47
2023/12/27 11:31:53;;;;;;;5.70;1.87;;;;;;;9.89;68.43;98445.41;6131027;28;20205;-49
2023/12/27 11:34:55;;;;;;;4.80;1.73;;;;;;;9.62;69.96;98462.66;6128663;28;20212;-48
2023/12/27 11:38:19;;;;;;;3.10;1.83;;;;;;;9.64;69.57;98439.31;6132374;28;20607;-49
2023/12/27 11:41:21;;;;;;;2.57;1.53;;;;;;;9.51;70.84;98446.38;6127883;28;20209;-47
2023/12/27 11:44:34;;;;;;;2.83;1.70;;;;;;;9.51;71.67;98450.88;6132838;28;20180;-48
2023/12/27 11:47:38;;;;;;;3.57;1.67;;;;;;;9.92;69.51;98441.53;6128296;28;20196;-46
2023/12/27 11:50:40;;;;;;;4.23;2.00;;;;;;;9.71;69.68;98448.06;6123958;28;20202;-47
2023/12/27 11:53:46;;;;;;;4.23;2.33;;;;;;;9.58;70.42;98438.31;6124929;29;20752;-49
2023/12/27 11:56:48;;;;;;;2.97;1.83;;;;;;;9.54;70.67;98434.47;6126136;28;20588;-49
2023/12/27 11:59:55;;;;;;;2.03;1.53;;;;;;;9.66;71.09;98435.41;6116293;29;20332;-47
2023/12/27 12:03:00;;;;;;;3.00;1.90;;;;;;;9.52;70.74;98424.03;6127600;28;20201;-48
2023/12/27 12:06:34;;;;;;;4.33;2.00;;;;;;;9.52;70.91;98420.56;6125548;28;20683;-49
2023/12/27 12:09:38;;;;;;;2.83;1.60;;;;;;;9.53;71.07;98419.53;6133939;28;20566;-48
2023/12/27 12:12:41;;;;;;;4.37;1.60;;;;;;;9.51;71.39;98416.28;6129505;28;20241;-49
2023/12/27 12:15:44;;;;;;;2.90;1.73;;;;;;;9.45;71.85;98414.47;6129895;29;20814;-49
2023/12/27 12:18:47;;;;;;;3.73;2.13;;;;;;;9.42;71.72;98413.09;6131399;28;20200;-50
2023/12/27 12:21:51;;;;;;;4.43;1.97;;;;;;;9.38;71.54;98411.88;6130990;28;20223;-51
2023/12/27 12:25:05;;;;;;;6.67;2.30;;;;;;;9.47;71.38;98401.78;6132223;28;20329;-50
2023/12/27 12:28:08;;;;;;;2.67;2.00;;;;;;;9.67;69.58;98383.00;6133098;29;20328;-52
2023/12/27 12:31:11;;;;;;;5.40;1.70;;;;;;;9.44;71.40;98397.72;6131306;28;20663;-50
2023/12/27 12:34:13;;;;;;;3.57;1.90;;;;;;;9.40;71.76;98393.84;6134255;28;20709;-48
2023/12/27 12:37:17;;;;;;;3.07;1.73;;;;;;;9.73;69.81;98384.78;6133515;28;20283;-46
2023/12/27 12:40:20;;;;;;;2.07;1.60;;;;;;;9.36;70.92;98387.34;6135044;28;20199;-49
2023/12/27 12:43:22;;;;;;;1.73;1.53;;;;;;;9.21;71.62;98381.50;6133330;29;20201;-47
2023/12/27 12:46:25;;;;;;;1.63;1.53;;;;;;;9.18;72.02;98376.66;6132590;28;20214;-47
2023/12/27 12:49:29;;;;;;;2.07;1.50;;;;;;;9.28;72.21;98371.66;6134618;29;20205;-48
2023/12/27 12:52:35;;;;;;;3.80;1.60;;;;;;;9.14;71.76;98386.88;6129809;28;20753;-49
2023/12/27 12:55:38;;;;;;;3.77;1.43;;;;;;;9.09;71.45;98377.94;6128417;29;20276;-48
2023/12/27 12:58:41;;;;;;;3.77;1.53;;;;;;;9.19;70.82;98367.63;6121371;29;20541;-48
2023/12/27 13:01:44;;;;;;;2.20;1.50;;;;;;;9.04;71.07;98365.28;6129254;29;20614;-48
2023/12/27 13:04:57;;;;;;;1.73;1.40;;;;;;;9.02;71.51;98367.34;6131242;28;20202;-49
2023/12/27 13:08:06;;;;;;;4.17;1.60;;;;;;;8.74;72.46;98349.13;6134858;28;20203;-50
2023/12/27 13:11:10;;;;;;;1.97;1.40;;;;;;;8.95;70.75;98348.78;6130537;28;20662;-47
2023/12/27 13:14:14;;;;;;;3.87;1.47;;;;;;;8.79;71.41;98350.13;6140167;28;20218;-47
2023/12/27 18:20:16;;;;;;;7.30;5.63;;;;;;;1.14;100.00;98224.66;6370190;27;20532;-56
2023/12/27 18:23:19;;;;;;;8.70;5.73;;;;;;;1.01;100.00;98212.84;6370471;27;20194;-56
2023/12/27 18:26:22;;;;;;;8.70;5.50;;;;;;;1.09;100.00;98213.84;6364221;28;20193;-56
2023/12/27 18:29:39;;;;;;;8.37;5.30;;;;;;;0.99;100.00;98198.28;6372274;27;20222;-56
2023/12/27 18:51:14;;;;;;;7.77;5.77;;;;;;;-0.39;100.00;98047.28;6301992;28;20554;-93
2023/12/27 18:54:26;;;;;;;11.23;5.43;;;;;;;-1.97;100.00;97793.84;6253058;28;20177;-93
2023/12/27 18:57:29;;;;;;;9.45;6.30;;;;;;;-1.63;100.00;97864.25;6250405;28;20508;-94
2023/12/27 19:00:31;;;;;;;6.37;5.17;;;;;;;-0.86;100.00;97987.72;6237300;28;20184;-93
2023/12/27 19:03:37;;;;;;;12.03;6.43;;;;;;;-2.20;100.00;97762.31;6232648;28;20279;-93
2023/12/27 19:06:40;;;;;;;8.00;6.03;;;;;;;-1.01;100.00;97923.97;6226873;28;20260;-96
2023/12/27 19:09:43;;;;;;;10.53;5.43;;;;;;;-0.36;100.00;98032.06;6231279;28;20714;-95
2023/12/27 19:12:45;;;;;;;10.87;5.27;;;;;;;0.02;100.00;98110.94;6235683;28;20199;-94
2023/12/27 19:15:48;;;;;;;11.13;6.37;;;;;;;-0.99;100.00;97959.41;6226930;28;20196;-94
2023/12/27 19:18:51;;;;;;;10.23;5.33;;;;;;;0.45;100.00;98169.22;6220869;28;20187;-95
2023/12/27 19:21:55;;;;;;;7.23;5.00;;;;;;;0.43;100.00;98171.97;6219842;28;20334;-94
2023/12/27 19:24:59;;;;;;;11.30;4.90;;;;;;;-0.36;100.00;98080.97;6235105;28;20215;-90
2023/12/27 19:28:02;;;;;;;10.63;5.77;;;;;;;-0.80;100.00;98021.88;6235463;28;20200;-89
2023/12/27 19:31:05;;;;;;;8.53;5.60;;;;;;;0.55;100.00;98172.47;6252032;28;20578;-90
2023/12/27 19:34:09;;;;;;;8.57;5.80;;;;;;;0.41;100.00;98171.34;6235734;28;20280;-88
2023/12/27 19:37:12;;;;;;;8.73;4.80;;;;;;;-1.34;100.00;97924.72;6235403;28;20652;-90
2023/12/27 19:40:15;;;;;;;6.77;4.83;;;;;;;-0.27;100.00;98070.34;6251835;28;20266;-89
2023/12/27 19:43:18;;;;;;;7.93;5.03;;;;;;;0.29;100.00;98120.22;6251709;28;20184;-89
2023/12/27 19:46:21;;;;;;;9.50;5.70;;;;;;;-1.23;100.00;97878.34;6251260;28;20269;-90
2023/12/27 19:49:24;;;;;;;8.00;5.10;;;;;;;-2.01;100.00;97759.44;6269110;28;20230;-89